sensor_id;sensor_type;location;lat;lon;timestamp;temperature;humidity
21906;DHT22;11117;48.644;9.006;2023-03-14T06:27:09;7.40;99.90
21906;DHT22;11117;48.644;9.006;2023-03-14T06:49:02;8.10;99.90
21906;DHT22;11117;48.644;9.006;2023-03-14T06:51:27;8.20;99.90
21906;DHT22;11117;48.644;9.006;2023-03-14T06:53:53;8.20;99.90
21906;DHT22;11117;48.644;9.006;2023-03-14T06:56:18;8.30;99.90
21906;DHT22;11117;48.644;9.006;2023-03-14T06:58:44;8.30;99.90
21906;DHT22;11117;48.644;9.006;2023-03-14T07:01:24;8.30;99.90
21906;DHT22;11117;48.644;9.006;2023-03-14T07:13:33;8.80;99.90
21906;DHT22;11117;48.644;9.006;2023-03-14T07:15:59;9.00;99.90
21906;DHT22;11117;48.644;9.006;2023-03-14T07:18:24;9.10;99.90
21906;DHT22;11117;48.644;9.006;2023-03-14T07:20:50;9.20;99.90
21906;DHT22;11117;48.644;9.006;2023-03-14T07:23:15;9.20;99.90
21906;DHT22;11117;48.644;9.006;2023-03-14T07:25:41;9.30;99.90
21906;DHT22;11117;48.644;9.006;2023-03-14T07:28:07;9.30;99.90
21906;DHT22;11117;48.644;9.006;2023-03-14T07:30:32;9.30;99.90
21906;DHT22;11117;48.644;9.006;2023-03-14T07:32:58;9.40;99.90
21906;DHT22;11117;48.644;9.006;2023-03-14T07:35:23;9.40;99.90
21906;DHT22;11117;48.644;9.006;2023-03-14T07:37:49;9.40;99.90
21906;DHT22;11117;48.644;9.006;2023-03-14T07:40:15;9.40;99.90
21906;DHT22;11117;48.644;9.006;2023-03-14T07:42:41;9.50;99.90
21906;DHT22;11117;48.644;9.006;2023-03-14T07:45:08;9.60;99.90
21906;DHT22;11117;48.644;9.006;2023-03-14T07:47:34;9.80;99.90
21906;DHT22;11117;48.644;9.006;2023-03-14T07:50:00;9.80;99.90
21906;DHT22;11117;48.644;9.006;2023-03-14T07:52:25;9.80;99.90
21906;DHT22;11117;48.644;9.006;2023-03-14T07:54:51;9.90;99.90
21906;DHT22;11117;48.644;9.006;2023-03-14T07:57:16;10.10;99.90
21906;DHT22;11117;48.644;9.006;2023-03-14T07:59:42;10.20;99.90
21906;DHT22;11117;48.644;9.006;2023-03-14T08:02:11;10.20;99.90
21906;DHT22;11117;48.644;9.006;2023-03-14T08:04:36;10.30;99.90
21906;DHT22;11117;48.644;9.006;2023-03-14T08:07:02;10.40;99.90
21906;DHT22;11117;48.644;9.006;2023-03-14T08:09:27;10.60;99.90
21906;DHT22;11117;48.644;9.006;2023-03-14T08:11:53;10.50;99.90
21906;DHT22;11117;48.644;9.006;2023-03-14T08:14:18;10.50;99.90
21906;DHT22;11117;48.644;9.006;2023-03-14T08:16:44;10.70;99.90
21906;DHT22;11117;48.644;9.006;2023-03-14T08:19:10;10.90;99.90
21906;DHT22;11117;48.644;9.006;2023-03-14T08:21:35;11.10;99.90
21906;DHT22;11117;48.644;9.006;2023-03-14T08:24:01;11.30;99.90
21906;DHT22;11117;48.644;9.006;2023-03-14T08:26:26;11.40;99.90
21906;DHT22;11117;48.644;9.006;2023-03-14T08:28:52;11.40;99.90
21906;DHT22;11117;48.644;9.006;2023-03-14T08:31:17;11.50;99.90
21906;DHT22;11117;48.644;9.006;2023-03-14T08:33:43;11.40;99.90
21906;DHT22;11117;48.644;9.006;2023-03-14T08:36:09;11.30;99.90
21906;DHT22;11117;48.644;9.006;2023-03-14T08:38:34;11.40;99.90
21906;DHT22;11117;48.644;9.006;2023-03-14T08:41:01;11.40;99.90
21906;DHT22;11117;48.644;9.006;2023-03-14T08:43:28;11.30;99.90
21906;DHT22;11117;48.644;9.006;2023-03-14T08:45:58;11.30;99.90
21906;DHT22;11117;48.644;9.006;2023-03-14T08:48:23;11.30;99.90
21906;DHT22;11117;48.644;9.006;2023-03-14T08:50:49;11.30;99.90
21906;DHT22;11117;48.644;9.006;2023-03-14T08:53:14;11.10;99.90
21906;DHT22;11117;48.644;9.006;2023-03-14T08:55:40;11.10;99.90
21906;DHT22;11117;48.644;9.006;2023-03-14T08:58:05;11.30;99.90
21906;DHT22;11117;48.644;9.006;2023-03-14T09:00:31;11.30;99.90
21906;DHT22;11117;48.644;9.006;2023-03-14T09:02:56;11.40;99.90
21906;DHT22;11117;48.644;9.006;2023-03-14T09:05:22;11.50;99.90
21906;DHT22;11117;48.644;9.006;2023-03-14T09:07:47;11.70;99.90
21906;DHT22;11117;48.644;9.006;2023-03-14T09:10:13;11.60;99.90
21906;DHT22;11117;48.644;9.006;2023-03-14T09:12:38;11.60;99.90
21906;DHT22;11117;48.644;9.006;2023-03-14T09:15:04;11.80;99.90
21906;DHT22;11117;48.644;9.006;2023-03-14T09:17:30;11.90;99.90
21906;DHT22;11117;48.644;9.006;2023-03-14T09:19:56;12.00;99.90
21906;DHT22;11117;48.644;9.006;2023-03-14T09:22:21;12.00;99.90
21906;DHT22;11117;48.644;9.006;2023-03-14T09:24:47;12.00;99.90
21906;DHT22;11117;48.644;9.006;2023-03-14T09:27:13;11.90;99.90
21906;DHT22;11117;48.644;9.006;2023-03-14T09:29:38;11.90;99.90
21906;DHT22;11117;48.644;9.006;2023-03-14T09:32:04;11.80;99.90
21906;DHT22;11117;48.644;9.006;2023-03-14T09:34:29;11.80;99.90
21906;DHT22;11117;48.644;9.006;2023-03-14T09:36:55;11.60;99.90
21906;DHT22;11117;48.644;9.006;2023-03-14T09:39:20;11.30;99.90
21906;DHT22;11117;48.644;9.006;2023-03-14T09:41:48;11.20;99.90
21906;DHT22;11117;48.644;9.006;2023-03-14T09:44:29;11.00;99.90
21906;DHT22;11117;48.644;9.006;2023-03-14T09:46:58;10.80;99.90
21906;DHT22;11117;48.644;9.006;2023-03-14T09:49:36;11.00;99.90
21906;DHT22;11117;48.644;9.006;2023-03-14T09:52:29;11.20;99.90
21906;DHT22;11117;48.644;9.006;2023-03-14T09:55:05;11.10;99.90
21906;DHT22;11117;48.644;9.006;2023-03-14T09:57:34;11.50;99.90
21906;DHT22;11117;48.644;9.006;2023-03-14T10:00:05;11.50;99.90
21906;DHT22;11117;48.644;9.006;2023-03-14T10:02:34;11.50;99.90
21906;DHT22;11117;48.644;9.006;2023-03-14T10:05:00;11.70;99.90
21906;DHT22;11117;48.644;9.006;2023-03-14T10:07:31;12.00;99.90
21906;DHT22;11117;48.644;9.006;2023-03-14T10:09:58;12.00;99.90
21906;DHT22;11117;48.644;9.006;2023-03-14T10:12:37;12.00;99.90
21906;DHT22;11117;48.644;9.006;2023-03-14T10:15:12;12.00;99.90
21906;DHT22;11117;48.644;9.006;2023-03-14T10:17:39;12.40;99.90
21906;DHT22;11117;48.644;9.006;2023-03-14T10:20:05;12.70;99.90
21906;DHT22;11117;48.644;9.006;2023-03-14T10:22:32;12.40;99.90
21906;DHT22;11117;48.644;9.006;2023-03-14T10:25:06;12.40;99.90
21906;DHT22;11117;48.644;9.006;2023-03-14T10:27:45;12.60;99.90
21906;DHT22;11117;48.644;9.006;2023-03-14T10:33:20;12.90;99.90
21906;DHT22;11117;48.644;9.006;2023-03-14T10:35:51;12.80;99.90
21906;DHT22;11117;48.644;9.006;2023-03-14T10:38:17;12.90;99.90
21906;DHT22;11117;48.644;9.006;2023-03-14T10:40:48;13.00;99.90
21906;DHT22;11117;48.644;9.006;2023-03-14T10:43:17;12.70;99.90
21906;DHT22;11117;48.644;9.006;2023-03-14T10:45:44;12.60;99.90
21906;DHT22;11117;48.644;9.006;2023-03-14T10:48:31;12.30;99.90
21906;DHT22;11117;48.644;9.006;2023-03-14T10:51:11;12.10;99.90
21906;DHT22;11117;48.644;9.006;2023-03-14T10:56:37;12.20;99.90
21906;DHT22;11117;48.644;9.006;2023-03-14T10:59:07;12.20;99.90
21906;DHT22;11117;48.644;9.006;2023-03-14T11:04:37;11.80;99.90
21906;DHT22;11117;48.644;9.006;2023-03-14T11:09:58;11.70;99.90
21906;DHT22;11117;48.644;9.006;2023-03-14T11:18:51;11.00;99.90
21906;DHT22;11117;48.644;9.006;2023-03-14T11:21:41;10.70;99.90
21906;DHT22;11117;48.644;9.006;2023-03-14T11:32:47;10.50;99.90
21906;DHT22;11117;48.644;9.006;2023-03-14T11:38:05;10.60;99.90
21906;DHT22;11117;48.644;9.006;2023-03-14T11:40:35;10.60;99.90
21906;DHT22;11117;48.644;9.006;2023-03-14T11:43:16;10.70;99.90
21906;DHT22;11117;48.644;9.006;2023-03-14T11:45:45;11.00;99.90
21906;DHT22;11117;48.644;9.006;2023-03-14T11:51:23;11.00;99.90
21906;DHT22;11117;48.644;9.006;2023-03-14T11:56:34;10.70;99.90
21906;DHT22;11117;48.644;9.006;2023-03-14T11:59:07;10.70;99.90
21906;DHT22;11117;48.644;9.006;2023-03-14T12:01:44;10.70;99.90
21906;DHT22;11117;48.644;9.006;2023-03-14T12:07:03;10.10;99.90
21906;DHT22;11117;48.644;9.006;2023-03-14T12:09:34;10.10;99.90
21906;DHT22;11117;48.644;9.006;2023-03-14T12:12:02;9.90;99.90
21906;DHT22;11117;48.644;9.006;2023-03-14T12:14:37;9.70;99.90
21906;DHT22;11117;48.644;9.006;2023-03-14T12:17:20;10.00;99.90
21906;DHT22;11117;48.644;9.006;2023-03-14T12:19:46;10.20;99.90
21906;DHT22;11117;48.644;9.006;2023-03-14T12:22:27;9.90;99.90
21906;DHT22;11117;48.644;9.006;2023-03-14T12:25:04;10.10;99.90
21906;DHT22;11117;48.644;9.006;2023-03-14T12:28:02;10.00;99.90
21906;DHT22;11117;48.644;9.006;2023-03-14T12:35:39;9.30;99.90
21906;DHT22;11117;48.644;9.006;2023-03-14T12:38:10;9.20;99.90
21906;DHT22;11117;48.644;9.006;2023-03-14T12:43:33;9.00;99.90
21906;DHT22;11117;48.644;9.006;2023-03-14T12:48:45;8.90;99.90
21906;DHT22;11117;48.644;9.006;2023-03-14T12:51:16;8.90;99.90
21906;DHT22;11117;48.644;9.006;2023-03-14T12:54:28;8.70;99.90
21906;DHT22;11117;48.644;9.006;2023-03-14T13:08:14;9.20;99.90
21906;DHT22;11117;48.644;9.006;2023-03-14T13:10:38;9.30;99.90
21906;DHT22;11117;48.644;9.006;2023-03-14T13:13:22;9.60;99.90
21906;DHT22;11117;48.644;9.006;2023-03-14T13:15:49;9.10;99.90
21906;DHT22;11117;48.644;9.006;2023-03-14T13:23:30;8.80;99.90
21906;DHT22;11117;48.644;9.006;2023-03-14T13:25:56;8.70;99.90
21906;DHT22;11117;48.644;9.006;2023-03-14T13:28:22;8.40;99.90
21906;DHT22;11117;48.644;9.006;2023-03-14T13:31:02;8.20;99.90
21906;DHT22;11117;48.644;9.006;2023-03-14T13:33:28;8.00;99.90
21906;DHT22;11117;48.644;9.006;2023-03-14T13:35:59;8.10;99.90
21906;DHT22;11117;48.644;9.006;2023-03-14T13:38:30;8.20;99.90
21906;DHT22;11117;48.644;9.006;2023-03-14T13:41:06;8.20;99.90
21906;DHT22;11117;48.644;9.006;2023-03-14T13:43:36;8.10;99.90
21906;DHT22;11117;48.644;9.006;2023-03-14T13:46:04;8.00;99.90
21906;DHT22;11117;48.644;9.006;2023-03-14T13:48:33;8.10;99.90
21906;DHT22;11117;48.644;9.006;2023-03-14T13:51:09;8.10;99.90
21906;DHT22;11117;48.644;9.006;2023-03-14T13:53:50;8.20;99.90
21906;DHT22;11117;48.644;9.006;2023-03-14T13:56:18;8.30;99.90
21906;DHT22;11117;48.644;9.006;2023-03-14T13:58:44;8.20;99.90
21906;DHT22;11117;48.644;9.006;2023-03-14T14:01:38;8.30;99.90
21906;DHT22;11117;48.644;9.006;2023-03-14T14:04:15;8.30;99.90
21906;DHT22;11117;48.644;9.006;2023-03-14T14:06:47;8.10;99.90
21906;DHT22;11117;48.644;9.006;2023-03-14T14:09:52;8.00;99.90
21906;DHT22;11117;48.644;9.006;2023-03-14T14:12:24;7.80;99.90
21906;DHT22;11117;48.644;9.006;2023-03-14T14:17:44;7.70;99.90
21906;DHT22;11117;48.644;9.006;2023-03-14T14:20:21;7.70;99.90
21906;DHT22;11117;48.644;9.006;2023-03-14T14:22:48;7.60;99.90
21906;DHT22;11117;48.644;9.006;2023-03-14T14:25:15;7.70;99.90
21906;DHT22;11117;48.644;9.006;2023-03-14T14:27:43;7.70;99.90
21906;DHT22;11117;48.644;9.006;2023-03-14T14:30:26;7.60;99.90
21906;DHT22;11117;48.644;9.006;2023-03-14T14:32:52;7.60;99.90
21906;DHT22;11117;48.644;9.006;2023-03-14T14:35:34;7.60;99.90
21906;DHT22;11117;48.644;9.006;2023-03-14T14:38:00;7.60;99.90
21906;DHT22;11117;48.644;9.006;2023-03-14T14:40:28;7.50;99.90
21906;DHT22;11117;48.644;9.006;2023-03-14T14:43:01;7.70;99.90
21906;DHT22;11117;48.644;9.006;2023-03-14T14:45:27;7.70;99.90
21906;DHT22;11117;48.644;9.006;2023-03-14T14:48:06;7.70;99.90
21906;DHT22;11117;48.644;9.006;2023-03-14T14:50:36;7.60;99.90
21906;DHT22;11117;48.644;9.006;2023-03-14T14:53:26;7.50;99.90
21906;DHT22;11117;48.644;9.006;2023-03-14T14:55:51;7.60;99.90
21906;DHT22;11117;48.644;9.006;2023-03-14T14:58:29;7.70;99.90
21906;DHT22;11117;48.644;9.006;2023-03-14T15:03:52;7.90;99.90
21906;DHT22;11117;48.644;9.006;2023-03-14T15:06:18;8.10;99.90
21906;DHT22;11117;48.644;9.006;2023-03-14T15:08:46;8.20;99.90
21906;DHT22;11117;48.644;9.006;2023-03-14T15:11:23;8.30;99.90
21906;DHT22;11117;48.644;9.006;2023-03-14T15:13:49;8.20;99.90
21906;DHT22;11117;48.644;9.006;2023-03-14T15:16:18;8.00;99.90
21906;DHT22;11117;48.644;9.006;2023-03-14T15:18:47;8.10;99.90
21906;DHT22;11117;48.644;9.006;2023-03-14T15:21:15;7.90;99.90
21906;DHT22;11117;48.644;9.006;2023-03-14T15:23:40;7.80;99.90
21906;DHT22;11117;48.644;9.006;2023-03-14T15:26:14;7.70;99.90
21906;DHT22;11117;48.644;9.006;2023-03-14T15:28:40;7.60;99.90
21906;DHT22;11117;48.644;9.006;2023-03-14T15:31:09;7.70;99.90
21906;DHT22;11117;48.644;9.006;2023-03-14T15:33:35;7.70;99.90
21906;DHT22;11117;48.644;9.006;2023-03-14T15:36:01;7.60;99.90
21906;DHT22;11117;48.644;9.006;2023-03-14T15:38:26;7.70;99.90
21906;DHT22;11117;48.644;9.006;2023-03-14T15:40:52;7.70;99.90
21906;DHT22;11117;48.644;9.006;2023-03-14T15:43:18;7.70;99.90
21906;DHT22;11117;48.644;9.006;2023-03-14T15:45:44;7.80;99.90
21906;DHT22;11117;48.644;9.006;2023-03-14T15:48:19;7.80;99.90
21906;DHT22;11117;48.644;9.006;2023-03-14T15:50:44;7.60;99.90
21906;DHT22;11117;48.644;9.006;2023-03-14T15:53:11;7.70;99.90
21906;DHT22;11117;48.644;9.006;2023-03-14T15:55:36;7.80;99.90
21906;DHT22;11117;48.644;9.006;2023-03-14T15:58:02;7.60;99.90
21906;DHT22;11117;48.644;9.006;2023-03-14T16:00:28;7.60;99.90
21906;DHT22;11117;48.644;9.006;2023-03-14T16:02:54;7.70;99.90
21906;DHT22;11117;48.644;9.006;2023-03-14T16:05:20;7.80;99.90
21906;DHT22;11117;48.644;9.006;2023-03-14T16:07:46;7.70;99.90
21906;DHT22;11117;48.644;9.006;2023-03-14T16:10:12;7.60;99.90
21906;DHT22;11117;48.644;9.006;2023-03-14T16:12:38;7.60;99.90
21906;DHT22;11117;48.644;9.006;2023-03-14T16:15:05;7.60;99.90
21906;DHT22;11117;48.644;9.006;2023-03-14T16:17:32;7.70;99.90
21906;DHT22;11117;48.644;9.006;2023-03-14T16:19:58;7.80;99.90
21906;DHT22;11117;48.644;9.006;2023-03-14T16:22:23;8.30;99.90
21906;DHT22;11117;48.644;9.006;2023-03-14T16:24:49;8.00;99.90
21906;DHT22;11117;48.644;9.006;2023-03-14T16:27:15;7.90;99.90
21906;DHT22;11117;48.644;9.006;2023-03-14T16:29:41;7.70;99.90
21906;DHT22;11117;48.644;9.006;2023-03-14T16:32:07;7.70;99.90
21906;DHT22;11117;48.644;9.006;2023-03-14T16:34:32;7.40;99.90
21906;DHT22;11117;48.644;9.006;2023-03-14T16:36:58;7.40;99.90
21906;DHT22;11117;48.644;9.006;2023-03-14T16:39:23;7.20;99.90
21906;DHT22;11117;48.644;9.006;2023-03-14T16:41:49;7.20;99.90
21906;DHT22;11117;48.644;9.006;2023-03-14T16:44:15;7.10;99.90
21906;DHT22;11117;48.644;9.006;2023-03-14T16:46:40;7.00;99.90
21906;DHT22;11117;48.644;9.006;2023-03-14T16:49:06;6.90;99.90
21906;DHT22;11117;48.644;9.006;2023-03-14T16:51:31;6.90;99.90
21906;DHT22;11117;48.644;9.006;2023-03-14T16:53:57;6.90;99.90
21906;DHT22;11117;48.644;9.006;2023-03-14T16:56:23;6.90;99.90
21906;DHT22;11117;48.644;9.006;2023-03-14T16:58:49;6.80;99.90
21906;DHT22;11117;48.644;9.006;2023-03-14T17:01:16;6.60;99.90
21906;DHT22;11117;48.644;9.006;2023-03-14T17:03:47;6.50;99.90
21906;DHT22;11117;48.644;9.006;2023-03-14T17:06:19;6.30;99.90
21906;DHT22;11117;48.644;9.006;2023-03-14T17:08:45;6.20;99.90
21906;DHT22;11117;48.644;9.006;2023-03-14T17:11:11;6.10;99.90
21906;DHT22;11117;48.644;9.006;2023-03-14T17:13:37;6.00;99.90
21906;DHT22;11117;48.644;9.006;2023-03-14T17:16:03;5.90;99.90
21906;DHT22;11117;48.644;9.006;2023-03-14T17:18:30;5.80;99.90
21906;DHT22;11117;48.644;9.006;2023-03-14T17:20:56;5.80;99.90
21906;DHT22;11117;48.644;9.006;2023-03-14T17:23:23;5.70;99.90
21906;DHT22;11117;48.644;9.006;2023-03-14T17:25:50;5.60;99.90
21906;DHT22;11117;48.644;9.006;2023-03-14T17:28:16;5.60;99.90
21906;DHT22;11117;48.644;9.006;2023-03-14T17:30:42;5.60;99.90
21906;DHT22;11117;48.644;9.006;2023-03-14T17:33:08;5.60;99.90
21906;DHT22;11117;48.644;9.006;2023-03-14T17:35:33;5.50;99.90
21906;DHT22;11117;48.644;9.006;2023-03-14T17:37:59;5.40;99.90
21906;DHT22;11117;48.644;9.006;2023-03-14T17:40:25;5.40;99.90
21906;DHT22;11117;48.644;9.006;2023-03-14T17:42:51;5.30;99.90
21906;DHT22;11117;48.644;9.006;2023-03-14T17:45:17;5.30;99.90
21906;DHT22;11117;48.644;9.006;2023-03-14T17:47:43;5.10;99.90
21906;DHT22;11117;48.644;9.006;2023-03-14T17:50:09;5.10;99.90
21906;DHT22;11117;48.644;9.006;2023-03-14T17:52:35;5.00;99.90
21906;DHT22;11117;48.644;9.006;2023-03-14T17:55:01;5.00;99.90
21906;DHT22;11117;48.644;9.006;2023-03-14T17:57:27;4.90;99.90
21906;DHT22;11117;48.644;9.006;2023-03-14T17:59:53;4.90;99.90
21906;DHT22;11117;48.644;9.006;2023-03-14T18:02:21;4.90;99.90
21906;DHT22;11117;48.644;9.006;2023-03-14T18:04:47;4.90;99.90
21906;DHT22;11117;48.644;9.006;2023-03-14T18:07:13;4.80;99.90
21906;DHT22;11117;48.644;9.006;2023-03-14T18:09:40;4.80;99.90
21906;DHT22;11117;48.644;9.006;2023-03-14T18:12:07;4.80;99.90
21906;DHT22;11117;48.644;9.006;2023-03-14T18:14:36;4.60;99.90
21906;DHT22;11117;48.644;9.006;2023-03-14T18:17:03;4.50;99.90
21906;DHT22;11117;48.644;9.006;2023-03-14T18:19:28;4.30;99.90
21906;DHT22;11117;48.644;9.006;2023-03-14T18:21:54;4.20;99.90
21906;DHT22;11117;48.644;9.006;2023-03-14T18:24:20;4.20;99.90
21906;DHT22;11117;48.644;9.006;2023-03-14T18:26:46;4.10;99.90
21906;DHT22;11117;48.644;9.006;2023-03-14T18:29:12;4.00;99.90
21906;DHT22;11117;48.644;9.006;2023-03-14T18:31:38;4.10;99.90
21906;DHT22;11117;48.644;9.006;2023-03-14T18:34:03;4.00;99.90
21906;DHT22;11117;48.644;9.006;2023-03-14T18:36:29;3.90;99.90
21906;DHT22;11117;48.644;9.006;2023-03-14T18:38:54;3.90;99.90
21906;DHT22;11117;48.644;9.006;2023-03-14T18:41:21;3.90;99.90
21906;DHT22;11117;48.644;9.006;2023-03-14T18:43:47;3.80;99.90
21906;DHT22;11117;48.644;9.006;2023-03-14T18:46:13;3.70;99.90
21906;DHT22;11117;48.644;9.006;2023-03-14T18:48:39;3.70;99.90
21906;DHT22;11117;48.644;9.006;2023-03-14T18:51:04;3.70;99.90
21906;DHT22;11117;48.644;9.006;2023-03-14T18:53:30;3.70;99.90
21906;DHT22;11117;48.644;9.006;2023-03-14T18:55:55;3.70;99.90
21906;DHT22;11117;48.644;9.006;2023-03-14T18:58:21;3.80;99.90
21906;DHT22;11117;48.644;9.006;2023-03-14T19:00:47;3.80;99.90
21906;DHT22;11117;48.644;9.006;2023-03-14T19:03:13;3.80;99.90
21906;DHT22;11117;48.644;9.006;2023-03-14T19:05:42;3.70;99.90
21906;DHT22;11117;48.644;9.006;2023-03-14T19:08:08;3.70;99.90
21906;DHT22;11117;48.644;9.006;2023-03-14T19:10:34;3.70;99.90
21906;DHT22;11117;48.644;9.006;2023-03-14T19:12:59;3.80;99.90
21906;DHT22;11117;48.644;9.006;2023-03-14T19:15:25;3.80;99.90
21906;DHT22;11117;48.644;9.006;2023-03-14T19:17:50;3.90;99.90
21906;DHT22;11117;48.644;9.006;2023-03-14T19:20:16;4.00;99.90
21906;DHT22;11117;48.644;9.006;2023-03-14T19:22:41;4.10;99.90
21906;DHT22;11117;48.644;9.006;2023-03-14T19:25:08;4.20;99.90
21906;DHT22;11117;48.644;9.006;2023-03-14T19:27:34;4.20;99.90
21906;DHT22;11117;48.644;9.006;2023-03-14T19:30:00;4.30;99.90
21906;DHT22;11117;48.644;9.006;2023-03-14T19:32:25;4.30;99.90
21906;DHT22;11117;48.644;9.006;2023-03-14T19:34:51;4.40;99.90
21906;DHT22;11117;48.644;9.006;2023-03-14T19:37:17;4.40;99.90
21906;DHT22;11117;48.644;9.006;2023-03-14T19:39:43;4.40;99.90
21906;DHT22;11117;48.644;9.006;2023-03-14T19:42:08;4.50;99.90
21906;DHT22;11117;48.644;9.006;2023-03-14T19:44:34;4.50;99.90
21906;DHT22;11117;48.644;9.006;2023-03-14T19:46:59;4.70;99.90
21906;DHT22;11117;48.644;9.006;2023-03-14T19:49:26;4.80;99.90
21906;DHT22;11117;48.644;9.006;2023-03-14T19:51:51;4.80;99.90
21906;DHT22;11117;48.644;9.006;2023-03-14T19:54:17;4.80;99.90
21906;DHT22;11117;48.644;9.006;2023-03-14T19:56:42;4.80;99.90
21906;DHT22;11117;48.644;9.006;2023-03-14T19:59:08;4.70;99.90
21906;DHT22;11117;48.644;9.006;2023-03-14T20:01:33;4.80;99.90
21906;DHT22;11117;48.644;9.006;2023-03-14T20:03:59;4.60;99.90
21906;DHT22;11117;48.644;9.006;2023-03-14T20:06:25;4.50;99.90
21906;DHT22;11117;48.644;9.006;2023-03-14T20:08:50;4.50;99.90
21906;DHT22;11117;48.644;9.006;2023-03-14T20:11:16;4.50;99.90
21906;DHT22;11117;48.644;9.006;2023-03-14T20:13:41;4.50;99.90
21906;DHT22;11117;48.644;9.006;2023-03-14T20:16:07;4.50;99.90
21906;DHT22;11117;48.644;9.006;2023-03-14T20:18:33;4.50;99.90
21906;DHT22;11117;48.644;9.006;2023-03-14T20:20:58;4.50;99.90
21906;DHT22;11117;48.644;9.006;2023-03-14T20:23:24;4.60;99.90
21906;DHT22;11117;48.644;9.006;2023-03-14T20:25:57;4.70;99.90
21906;DHT22;11117;48.644;9.006;2023-03-14T20:28:24;4.70;99.90
21906;DHT22;11117;48.644;9.006;2023-03-14T20:30:50;4.80;99.90
21906;DHT22;11117;48.644;9.006;2023-03-14T20:33:16;4.60;99.90
21906;DHT22;11117;48.644;9.006;2023-03-14T20:35:42;4.80;99.90
21906;DHT22;11117;48.644;9.006;2023-03-14T20:38:08;4.90;99.90
21906;DHT22;11117;48.644;9.006;2023-03-14T20:40:33;4.80;99.90
21906;DHT22;11117;48.644;9.006;2023-03-14T20:42:59;4.80;99.90
21906;DHT22;11117;48.644;9.006;2023-03-14T20:45:24;4.70;99.90
21906;DHT22;11117;48.644;9.006;2023-03-14T20:47:50;4.80;99.90
21906;DHT22;11117;48.644;9.006;2023-03-14T20:50:15;4.90;99.90
21906;DHT22;11117;48.644;9.006;2023-03-14T20:52:41;4.80;99.90
21906;DHT22;11117;48.644;9.006;2023-03-14T20:55:07;4.80;99.90
21906;DHT22;11117;48.644;9.006;2023-03-14T20:57:33;4.70;99.90
21906;DHT22;11117;48.644;9.006;2023-03-14T20:59:58;4.60;99.90
21906;DHT22;11117;48.644;9.006;2023-03-14T21:02:24;4.60;99.90
21906;DHT22;11117;48.644;9.006;2023-03-14T21:04:49;4.60;99.90
21906;DHT22;11117;48.644;9.006;2023-03-14T21:07:15;4.60;99.90
21906;DHT22;11117;48.644;9.006;2023-03-14T21:09:41;4.60;99.90
21906;DHT22;11117;48.644;9.006;2023-03-14T21:12:06;4.60;99.90
21906;DHT22;11117;48.644;9.006;2023-03-14T21:14:32;4.50;99.90
21906;DHT22;11117;48.644;9.006;2023-03-14T21:16:58;4.50;99.90
21906;DHT22;11117;48.644;9.006;2023-03-14T21:19:24;4.50;99.90
21906;DHT22;11117;48.644;9.006;2023-03-14T21:21:50;4.50;99.90
21906;DHT22;11117;48.644;9.006;2023-03-14T21:24:15;4.50;99.90
21906;DHT22;11117;48.644;9.006;2023-03-14T21:26:41;4.40;99.90
21906;DHT22;11117;48.644;9.006;2023-03-14T21:29:06;4.40;99.90
21906;DHT22;11117;48.644;9.006;2023-03-14T21:31:32;4.20;99.90
21906;DHT22;11117;48.644;9.006;2023-03-14T21:33:58;4.10;99.90
21906;DHT22;11117;48.644;9.006;2023-03-14T21:36:25;4.00;99.90
21906;DHT22;11117;48.644;9.006;2023-03-14T21:38:50;4.20;99.90
21906;DHT22;11117;48.644;9.006;2023-03-14T21:41:16;4.20;99.90
21906;DHT22;11117;48.644;9.006;2023-03-14T21:43:41;4.10;99.90
21906;DHT22;11117;48.644;9.006;2023-03-14T21:46:07;4.20;99.90
21906;DHT22;11117;48.644;9.006;2023-03-14T21:48:32;4.00;99.90
21906;DHT22;11117;48.644;9.006;2023-03-14T21:50:58;4.00;99.90
21906;DHT22;11117;48.644;9.006;2023-03-14T21:53:24;4.00;99.90
21906;DHT22;11117;48.644;9.006;2023-03-14T21:55:51;4.00;99.90
21906;DHT22;11117;48.644;9.006;2023-03-14T21:58:17;3.90;99.90
21906;DHT22;11117;48.644;9.006;2023-03-14T22:00:43;3.80;99.90
21906;DHT22;11117;48.644;9.006;2023-03-14T22:03:08;3.80;99.90
21906;DHT22;11117;48.644;9.006;2023-03-14T22:05:34;3.80;99.90
21906;DHT22;11117;48.644;9.006;2023-03-14T22:07:59;3.70;99.90
21906;DHT22;11117;48.644;9.006;2023-03-14T22:10:25;3.80;99.90
21906;DHT22;11117;48.644;9.006;2023-03-14T22:12:51;3.80;99.90
21906;DHT22;11117;48.644;9.006;2023-03-14T22:15:16;3.80;99.90
21906;DHT22;11117;48.644;9.006;2023-03-14T22:17:42;3.80;99.90
21906;DHT22;11117;48.644;9.006;2023-03-14T22:20:09;3.70;99.90
21906;DHT22;11117;48.644;9.006;2023-03-14T22:22:36;3.70;99.90
21906;DHT22;11117;48.644;9.006;2023-03-14T22:25:03;3.70;99.90
21906;DHT22;11117;48.644;9.006;2023-03-14T22:27:29;3.60;99.90
21906;DHT22;11117;48.644;9.006;2023-03-14T22:29:54;3.70;99.90
21906;DHT22;11117;48.644;9.006;2023-03-14T22:32:22;3.70;99.90
21906;DHT22;11117;48.644;9.006;2023-03-14T22:34:47;3.60;99.90
21906;DHT22;11117;48.644;9.006;2023-03-14T22:37:13;3.60;99.90
21906;DHT22;11117;48.644;9.006;2023-03-14T22:39:39;3.60;99.90
21906;DHT22;11117;48.644;9.006;2023-03-14T22:42:04;3.20;99.90
21906;DHT22;11117;48.644;9.006;2023-03-14T22:44:30;1.60;99.90
21906;DHT22;11117;48.644;9.006;2023-03-14T22:46:56;1.20;99.90
21906;DHT22;11117;48.644;9.006;2023-03-14T22:49:21;0.80;99.90
21906;DHT22;11117;48.644;9.006;2023-03-14T22:51:47;0.70;99.90
21906;DHT22;11117;48.644;9.006;2023-03-14T22:54:12;0.60;99.90
21906;DHT22;11117;48.644;9.006;2023-03-14T22:56:38;0.50;99.90
21906;DHT22;11117;48.644;9.006;2023-03-14T22:59:03;0.30;99.90
21906;DHT22;11117;48.644;9.006;2023-03-14T23:01:29;0.20;99.90
21906;DHT22;11117;48.644;9.006;2023-03-14T23:03:54;0.10;99.90
21906;DHT22;11117;48.644;9.006;2023-03-14T23:06:20;0.10;99.90
21906;DHT22;11117;48.644;9.006;2023-03-14T23:08:46;0.10;99.90
21906;DHT22;11117;48.644;9.006;2023-03-14T23:11:12;0.10;99.90
21906;DHT22;11117;48.644;9.006;2023-03-14T23:13:38;0.10;99.90
21906;DHT22;11117;48.644;9.006;2023-03-14T23:16:04;0.10;99.90
21906;DHT22;11117;48.644;9.006;2023-03-14T23:18:30;0.10;99.90
21906;DHT22;11117;48.644;9.006;2023-03-14T23:23:34;0.10;99.90
21906;DHT22;11117;48.644;9.006;2023-03-14T23:26:05;0.20;99.90
21906;DHT22;11117;48.644;9.006;2023-03-14T23:28:31;0.20;99.90
21906;DHT22;11117;48.644;9.006;2023-03-14T23:30:58;0.20;99.90
21906;DHT22;11117;48.644;9.006;2023-03-14T23:33:25;0.20;99.90
21906;DHT22;11117;48.644;9.006;2023-03-14T23:35:51;0.20;99.90
21906;DHT22;11117;48.644;9.006;2023-03-14T23:38:17;0.20;99.90
21906;DHT22;11117;48.644;9.006;2023-03-14T23:40:43;0.20;99.90
21906;DHT22;11117;48.644;9.006;2023-03-14T23:43:08;0.20;99.90
21906;DHT22;11117;48.644;9.006;2023-03-14T23:45:34;0.30;99.90
21906;DHT22;11117;48.644;9.006;2023-03-14T23:47:59;0.30;99.90
21906;DHT22;11117;48.644;9.006;2023-03-14T23:50:25;0.30;99.90
21906;DHT22;11117;48.644;9.006;2023-03-14T23:52:50;0.30;99.90
21906;DHT22;11117;48.644;9.006;2023-03-14T23:55:18;0.30;99.90